Home > Products > Valid Products > MTR

000
SAUS46 KSTO 250253
MTRBLU
METAR KBLU 250252Z AUTO 08012G26KT 040V120 10SM CLR 13/M07 A3029 RMK
AO2 PK WND 08026/0248 SLP212 T01281067 55003





000
SAUS46 KSTO 250153
MTRBLU
METAR KBLU 250152Z AUTO 08010G19KT 040V110 10SM CLR 13/M07 A3028 RMK
AO2 SLP209 T01331067





000
SAUS46 KSTO 250153
MTRBLU
METAR KBLU 250152Z AUTO 08010G19KT 040V110 10SM CLR 13/M07 A3028 RMK
AO2 SLP209 T01331067





000
SAUS46 KSTO 250053
MTRBLU
METAR KBLU 250052Z AUTO VRB06KT 10SM CLR 16/M07 A3029 RMK AO2 SLP209
T01561067





000
SAUS46 KSTO 242353
MTRBLU
METAR KBLU 242352Z AUTO 08008G20KT 020V130 10SM CLR 16/M07 A3030 RMK
AO2 SLP201 T01611072 10183 20133 56004





000
SAUS46 KSTO 242253
MTRBLU
METAR KBLU 242252Z AUTO 07010G20KT 030V100 10SM CLR 17/M08 A3030 RMK
AO2 PK WND 08028/2208 SLP207 T01671083





000
SAUS46 KSTO 242153
MTRBLU
METAR KBLU 242152Z AUTO 07012G23KT 10SM CLR 17/M08 A3030 RMK AO2 PK
WND 09026/2136 SLP209 T01671083





000
SAUS46 KSTO 242053
MTRBLU
METAR KBLU 242052Z AUTO 05010G21KT 360V090 10SM CLR 18/M08 A3031 RMK
AO2 SLP209 T01831083 58012





000
SAUS46 KSTO 241953
MTRBLU
METAR KBLU 241952Z AUTO VRB06KT 10SM CLR 17/M09 A3034 RMK AO2 SLP223
T01721094





000
SAUS46 KSTO 241853
MTRBLU
METAR KBLU 241852Z AUTO VRB06KT 10SM CLR 17/M09 A3036 RMK AO2 SLP229
T01671094





000
SAUS46 KSTO 241753
MTRBLU
METAR KBLU 241752Z AUTO 06009G24KT 030V090 10SM CLR 13/M12 A3035 RMK
AO2 SLP234 T01331122 10133 20089 56012





000
SAUS46 KSTO 241653
MTRBLU
METAR KBLU 241652Z AUTO 07007KT 360V120 10SM CLR 11/M11 A3036 RMK
AO2 SLP242 T01111111





000
SAUS46 KSTO 241553
MTRBLU
METAR KBLU 241552Z AUTO 08007KT 10SM CLR 09/M12 A3038 RMK AO2 SLP252
T00891122





000
SAUS46 KSTO 241453
MTRBLU
METAR KBLU 241452Z AUTO 06008G14KT 10SM CLR 09/M14 A3039 RMK AO2
SLP258 T00941139 53017





000
SAUS46 KSTO 241353
MTRBLU
METAR KBLU 241352Z AUTO 03007KT 360V070 10SM CLR 10/M14 A3036 RMK
AO2 SLP245 T01001139





000
SAUS46 KSTO 241253
MTRBLU
METAR KBLU 241252Z AUTO VRB06KT 10SM CLR 09/M12 A3035 RMK AO2 SLP240
T00891122





000
SAUS46 KSTO 241153
MTRBLU
METAR KBLU 241152Z AUTO VRB05KT 10SM CLR 11/M15 A3034 RMK AO2 SLP223
T01111150 10111 20078 58013





000
SAUS46 KSTO 241053
MTRBLU
METAR KBLU 241052Z AUTO 08010G21KT 040V120 10SM CLR 10/M14 A3035 RMK
AO2 SLP225 T01001139





000
SAUS46 KSTO 240953
MTRBLU
METAR KBLU 240952Z AUTO 08013G22KT 10SM CLR 08/M11 A3038 RMK AO2
SLP245 T00831106





000
SAUS46 KSTO 240953
MTRBLU
METAR KBLU 240952Z AUTO 08013G22KT 10SM CLR 08/M11 A3038 RMK AO2
SLP245 T00831106





000
SAUS46 KSTO 240853
MTRBLU
METAR KBLU 240852Z AUTO 05009G19KT 360V080 10SM CLR 08/M09 A3038 RMK
AO2 SLP245 T00831089 53005





000
SAUS46 KSTO 240753
MTRBLU
METAR KBLU 240752Z AUTO 08013G25KT 10SM CLR 08/M08 A3037 RMK AO2 PK
WND 05028/0726 SLP241 T00831083 401500056





000
SAUS46 KSTO 240653
MTRBLU
METAR KBLU 240652Z AUTO 07016G34KT 040V100 10SM CLR 09/M09 A3036 RMK
AO2 PK WND 07034/0645 SLP239 T00891089





000
SAUS46 KSTO 240553
MTRBLU
METAR KBLU 240552Z AUTO 06015G25KT 10SM CLR 09/M10 A3036 RMK AO2 PK
WND 05030/0518 SLP244 T00891100 10133 20089 56005





000
SAUS46 KSTO 240453
MTRBLU
METAR KBLU 240452Z AUTO 05011G28KT 360V090 10SM CLR 09/M09 A3037 RMK
AO2 PK WND 08030/0415 SLP253 T00891094





000
SAUS46 KSTO 240353
MTRBLU
METAR KBLU 240352Z AUTO 06014G29KT 10SM CLR 09/M09 A3036 RMK AO2 PK
WND 07029/0343 SLP251 T00941094





000
SAUS46 KSTO 240253
MTRBLU
METAR KBLU 240252Z AUTO 06010G24KT 030V100 10SM CLR 09/M09 A3038 RMK
AO2 SLP257 T00941089 56005





000
SAUS46 KSTO 240153
MTRBLU
METAR KBLU 240152Z AUTO 06010G17KT 10SM CLR 10/M09 A3038 RMK AO2
SLP258 T01001089





000
SAUS46 KSTO 240053
MTRBLU
METAR KBLU 240052Z AUTO 06009G17KT 10SM CLR 11/M08 A3038 RMK AO2
SLP258 T01111078





000
SAUS46 KSTO 232353
MTRBLU
METAR KBLU 232352Z AUTO 05007KT 030V090 10SM CLR 13/M09 A3040 RMK
AO2 SLP254 T01331089 10150 20117 57003





000
SAUS46 KSTO 232253
MTRBLU
METAR KBLU 232252Z AUTO VRB04KT 10SM CLR 15/M08 A3040 RMK AO2 SLP251
T01501078





000
SAUS46 KSTO 232153
MTRBLU
METAR KBLU 232152Z AUTO VRB04KT 10SM CLR 14/M08 A3040 RMK AO2 SLP253
T01391078





000
SAUS46 KSTO 232153
MTRBLU
METAR KBLU 232152Z AUTO VRB04KT 10SM CLR 14/M08 A3040 RMK AO2 SLP253
T01391078





000
SAUS46 KSTO 232053
MTRBLU
METAR KBLU 232052Z AUTO VRB06KT 10SM CLR 14/M07 A3041 RMK AO2 SLP254
T01391067 58005





000
SAUS46 KSTO 231953
MTRBLU
METAR KBLU 231952Z AUTO 07007KT 350V120 10SM CLR 13/M07 A3042 RMK
AO2 SLP262 T01331072





000
SAUS46 KSTO 231853
MTRBLU
METAR KBLU 231852Z AUTO VRB05KT 10SM CLR 13/M06 A3043 RMK AO2 SLP264
T01281061





000
SAUS46 KSTO 231753
MTRBLU
METAR KBLU 231752Z AUTO VRB04KT 10SM CLR 11/M05 A3042 RMK AO2 SLP266
T01111050 10111 20056 51002





000
SAUS46 KSTO 231653
MTRBLU
METAR KBLU 231652Z AUTO VRB06KT 10SM CLR 08/M07 A3042 RMK AO2 SLP272
T00831067





000
SAUS46 KSTO 231653
MTRBLU
METAR KBLU 231652Z AUTO VRB06KT 10SM CLR 08/M07 A3042 RMK AO2 SLP272
T00831067





000
SAUS46 KSTO 231553
MTRBLU
METAR KBLU 231552Z AUTO 05004KT 10SM CLR 07/M07 A3043 RMK AO2 SLP277
T00721072





000
SAUS46 KSTO 231453
MTRBLU
METAR KBLU 231452Z AUTO 06005KT 10SM CLR 07/M08 A3042 RMK AO2 SLP273
T00671083 53008





000
SAUS46 KSTO 231353
MTRBLU
METAR KBLU 231352Z AUTO 05005KT 10SM CLR 07/M09 A3041 RMK AO2 SLP270
T00671089





000
SAUS46 KSTO 231253
MTRBLU
METAR KBLU 231252Z AUTO VRB04KT 10SM CLR 07/M09 A3039 RMK AO2 SLP265
T00671089





000
SAUS46 KSTO 231153
MTRBLU
METAR KBLU 231152Z AUTO 00000KT 10SM CLR 08/M06 A3039 RMK AO2 SLP258
T00781061 10083 20067 50002





000
SAUS46 KSTO 231053
MTRBLU
METAR KBLU 231052Z AUTO VRB05KT 10SM CLR 07/M07 A3041 RMK AO2 SLP267
T00721072





000
SAUS46 KSTO 230953
MTRBLU
METAR KBLU 230952Z AUTO 06006G15KT 10SM CLR 08/M06 A3040 RMK AO2
SLP261 T00781061





000
SAUS46 KSTO 230853
MTRBLU
METAR KBLU 230852Z AUTO VRB05G15KT 10SM CLR 08/M05 A3038 RMK AO2
SLP255 T00781050 58004





000
SAUS46 KSTO 230753
MTRBLU
METAR KBLU 230752Z AUTO 06008KT 10SM CLR 08/M06 A3040 RMK AO2 SLP260
T00781061 401110061





000
SAUS46 KSTO 230753
MTRBLU
METAR KBLU 230752Z AUTO 06008KT 10SM CLR 08/M06 A3040 RMK AO2 SLP260
T00781061 401110061





000
SAUS46 KSTO 230653
MTRBLU
METAR KBLU 230652Z AUTO 06006KT 10SM CLR 08/M07 A3040 RMK AO2 SLP261
T00781067 TSNO





000
SAUS46 KSTO 230553
MTRBLU
METAR KBLU 230552Z AUTO 04007G15KT 10SM CLR 08/M09 A3039 RMK AO2
SLP260 T00831094 10100 20072 53006





000
SAUS46 KSTO 230453
MTRBLU
METAR KBLU 230452Z AUTO VRB06KT 10SM CLR 08/M09 A3037 RMK AO2 SLP259
T00831094





000
SAUS46 KSTO 230353
MTRBLU
METAR KBLU 230352Z AUTO 05004KT 10SM CLR 08/M09 A3037 RMK AO2 SLP256
T00831094





000
SAUS46 KSTO 230253
MTRBLU
METAR KBLU 230252Z AUTO 06004KT 10SM CLR 09/M08 A3037 RMK AO2 SLP255
T00891078 50000





000
SAUS46 KSTO 230153
MTRBLU
METAR KBLU 230152Z AUTO 06004KT 10SM CLR 08/M05 A3037 RMK AO2 SLP259
T00831050





000
SAUS46 KSTO 230053
MTRBLU
METAR KBLU 230052Z AUTO 00000KT 10SM CLR 09/M02 A3037 RMK AO2 SLP258
T00891022





000
SAUS46 KSTO 222353
MTRBLU
METAR KBLU 222352Z AUTO 00000KT 10SM OVC100 09/M06 A3037 RMK AO2
SLP252 T00941056 10111 20094 53008





000
SAUS46 KSTO 222253
MTRBLU
METAR KBLU 222252Z AUTO VRB05KT 10SM OVC100 10/M05 A3035 RMK AO2
SLP245 T01001050





000
SAUS46 KSTO 222153
MTRBLU
METAR KBLU 222152Z AUTO 18006KT 10SM BKN095 11/M08 A3034 RMK AO2
SLP236 T01061083





000
SAUS46 KSTO 222053
MTRBLU
METAR KBLU 222052Z AUTO 21003KT 10SM BKN100 09/M08 A3034 RMK AO2
SLP240 T00941078 50005





000
SAUS46 KSTO 221953
MTRBLU
METAR KBLU 221952Z AUTO 17007KT 10SM OVC110 11/M10 A3035 RMK AO2
SLP241 T01061100





000
SAUS46 KSTO 221853
MTRBLU
METAR KBLU 221852Z AUTO 19008KT 10SM CLR 11/M11 A3035 RMK AO2 SLP239
T01061111





000
SAUS46 KSTO 221753
MTRBLU
METAR KBLU 221752Z AUTO 15004KT 10SM CLR 09/M10 A3032 RMK AO2 SLP236
T00891100 10089 20061 53013





000
SAUS46 KSTO 221653
MTRBLU
METAR KBLU 221652Z AUTO 10003KT 10SM CLR 07/M09 A3031 RMK AO2 SLP235
T00721089





000
SAUS46 KSTO 221553
MTRBLU
METAR KBLU 221552Z AUTO 00000KT 10SM CLR 08/M13 A3030 RMK AO2 SLP231
T00781128





000
SAUS46 KSTO 221553
MTRBLU
METAR KBLU 221552Z AUTO 00000KT 10SM CLR 08/M13 A3030 RMK AO2 SLP231
T00781128





000
SAUS46 KSTO 221453
MTRBLU
METAR KBLU 221452Z AUTO 10003KT 10SM CLR 07/M15 A3028 RMK AO2 SLP228
T00721150 53004





000
SAUS46 KSTO 221353
MTRBLU
METAR KBLU 221352Z AUTO 00000KT 10SM CLR 07/M17 A3027 RMK AO2 SLP223
T00721167





000
SAUS46 KSTO 221253
MTRBLU
METAR KBLU 221252Z AUTO 00000KT 10SM CLR 07/M16 A3027 RMK AO2 SLP219
T00671161





000
SAUS46 KSTO 221153
MTRBLU
METAR KBLU 221152Z AUTO 00000KT 10SM CLR 08/M17 A3026 RMK AO2 SLP208
T00831172 10100 20072 51007





000
SAUS46 KSTO 221053
MTRBLU
METAR KBLU 221052Z AUTO 04003KT 10SM CLR 08/M18 A3026 RMK AO2 SLP206
T00781178





000
SAUS46 KSTO 220953
MTRBLU
METAR KBLU 220952Z AUTO 00000KT 10SM CLR 09/M18 A3025 RMK AO2 SLP198
T00891183





000
SAUS46 KSTO 220953
MTRBLU
METAR KBLU 220952Z AUTO 00000KT 10SM CLR 09/M18 A3025 RMK AO2 SLP198
T00891183





000
SAUS46 KSTO 220853
MTRBLU
METAR KBLU 220852Z AUTO 04004KT 10SM CLR 09/M17 A3024 RMK AO2 SLP196
T00891172 51006





000
SAUS46 KSTO 220753
MTRBLU
METAR KBLU 220752Z AUTO 04005KT 10SM CLR 08/M16 A3023 RMK AO2 SLP199
T00781161 401390044





000
SAUS46 KSTO 220753
MTRBLU
METAR KBLU 220752Z AUTO 04005KT 10SM CLR 08/M16 A3023 RMK AO2 SLP199
T00781161 401390044





000
SAUS46 KSTO 220653
MTRBLU
METAR KBLU 220652Z AUTO 05004KT 10SM CLR 09/M17 A3023 RMK AO2 SLP198
T00891172





000
SAUS46 KSTO 220553
MTRBLU
METAR KBLU 220552Z AUTO 06004KT 10SM CLR 09/M18 A3022 RMK AO2 SLP200
T00891183 10128 20072 53007





000
SAUS46 KSTO 220453
MTRBLU
METAR KBLU 220452Z AUTO 06005KT 10SM CLR 08/M14 A3021 RMK AO2 SLP201
T00781144





    US Dept of Commerce
    National Oceanic and Atmospheric Administration
    National Weather Service
    1325 East West Highway
    Silver Spring, MD 20910
    Page Author: NWS Internet Services Team
Disclaimer
Information Quality
Credits
Glossary
Privacy Policy
Freedom of Information Act (FOIA)
About Us
Career Opportunities